sensor_id;sensor_type;location;lat;lon;timestamp;pressure;altitude;pressure_sealevel;temperature;humidity
54038;BME280;39954;48.844;9.726;2024-02-28T00:00:00;95981.75;;;4.04;100.00
54038;BME280;39954;48.844;9.726;2024-02-28T00:01:04;95980.13;;;4.01;100.00
54038;BME280;39954;48.844;9.726;2024-02-28T00:02:09;95976.75;;;3.99;100.00
54038;BME280;39954;48.844;9.726;2024-02-28T00:03:11;95977.75;;;3.95;100.00
54038;BME280;39954;48.844;9.726;2024-02-28T00:04:16;95977.91;;;3.91;100.00
54038;BME280;39954;48.844;9.726;2024-02-28T00:05:19;95972.84;;;3.88;100.00
54038;BME280;39954;48.844;9.726;2024-02-28T00:06:23;95979.03;;;3.82;100.00
54038;BME280;39954;48.844;9.726;2024-02-28T00:07:25;95976.59;;;3.77;100.00
54038;BME280;39954;48.844;9.726;2024-02-28T00:08:28;95985.34;;;3.72;100.00
54038;BME280;39954;48.844;9.726;2024-02-28T00:09:32;95978.75;;;3.63;100.00
54038;BME280;39954;48.844;9.726;2024-02-28T00:10:34;95981.53;;;3.57;100.00
54038;BME280;39954;48.844;9.726;2024-02-28T00:11:42;95977.44;;;3.50;100.00
54038;BME280;39954;48.844;9.726;2024-02-28T00:12:45;95985.34;;;3.44;100.00
54038;BME280;39954;48.844;9.726;2024-02-28T00:13:50;95986.44;;;3.36;100.00
54038;BME280;39954;48.844;9.726;2024-02-28T00:14:52;95980.69;;;3.28;100.00
54038;BME280;39954;48.844;9.726;2024-02-28T00:15:59;95987.72;;;3.22;100.00
54038;BME280;39954;48.844;9.726;2024-02-28T00:17:05;95985.41;;;3.14;100.00
54038;BME280;39954;48.844;9.726;2024-02-28T00:18:09;95984.72;;;3.07;100.00
54038;BME280;39954;48.844;9.726;2024-02-28T00:19:12;95994.34;;;3.01;100.00
54038;BME280;39954;48.844;9.726;2024-02-28T00:20:21;95992.81;;;2.94;100.00
54038;BME280;39954;48.844;9.726;2024-02-28T00:21:23;96005.00;;;2.85;100.00
54038;BME280;39954;48.844;9.726;2024-02-28T00:22:28;96007.81;;;2.78;100.00
54038;BME280;39954;48.844;9.726;2024-02-28T00:23:30;96006.28;;;2.71;100.00
54038;BME280;39954;48.844;9.726;2024-02-28T00:24:35;96000.44;;;2.65;100.00
54038;BME280;39954;48.844;9.726;2024-02-28T00:25:40;95999.72;;;2.60;100.00
54038;BME280;39954;48.844;9.726;2024-02-28T00:26:45;96002.34;;;2.59;100.00
54038;BME280;39954;48.844;9.726;2024-02-28T00:27:48;96010.94;;;2.58;100.00
54038;BME280;39954;48.844;9.726;2024-02-28T00:28:52;96008.41;;;2.55;100.00
54038;BME280;39954;48.844;9.726;2024-02-28T00:29:55;96007.63;;;2.53;100.00
54038;BME280;39954;48.844;9.726;2024-02-28T00:31:00;96011.16;;;2.49;100.00
54038;BME280;39954;48.844;9.726;2024-02-28T00:32:06;96009.56;;;2.44;100.00
54038;BME280;39954;48.844;9.726;2024-02-28T00:33:10;96004.50;;;2.41;100.00
54038;BME280;39954;48.844;9.726;2024-02-28T00:34:13;96018.28;;;2.37;100.00
54038;BME280;39954;48.844;9.726;2024-02-28T00:35:18;96021.75;;;2.35;100.00
54038;BME280;39954;48.844;9.726;2024-02-28T00:36:20;96014.19;;;2.30;100.00
54038;BME280;39954;48.844;9.726;2024-02-28T00:37:25;96023.66;;;2.28;100.00
54038;BME280;39954;48.844;9.726;2024-02-28T00:38:29;96022.03;;;2.24;100.00
54038;BME280;39954;48.844;9.726;2024-02-28T00:39:34;96016.06;;;2.23;100.00
54038;BME280;39954;48.844;9.726;2024-02-28T00:40:36;96019.47;;;2.24;100.00
54038;BME280;39954;48.844;9.726;2024-02-28T00:41:41;96016.91;;;2.24;100.00
54038;BME280;39954;48.844;9.726;2024-02-28T00:42:43;96016.88;;;2.26;100.00
54038;BME280;39954;48.844;9.726;2024-02-28T00:43:48;96021.09;;;2.28;100.00
54038;BME280;39954;48.844;9.726;2024-02-28T00:44:50;96014.22;;;2.29;100.00
54038;BME280;39954;48.844;9.726;2024-02-28T00:45:55;96019.34;;;2.30;100.00
54038;BME280;39954;48.844;9.726;2024-02-28T00:47:00;96021.91;;;2.30;100.00
54038;BME280;39954;48.844;9.726;2024-02-28T00:48:08;96016.78;;;2.30;100.00
54038;BME280;39954;48.844;9.726;2024-02-28T00:49:10;96018.53;;;2.28;100.00
54038;BME280;39954;48.844;9.726;2024-02-28T00:50:15;96015.06;;;2.29;100.00
54038;BME280;39954;48.844;9.726;2024-02-28T00:51:17;96022.75;;;2.29;100.00
54038;BME280;39954;48.844;9.726;2024-02-28T00:52:22;96023.56;;;2.31;100.00
54038;BME280;39954;48.844;9.726;2024-02-28T00:53:27;96023.56;;;2.31;100.00
54038;BME280;39954;48.844;9.726;2024-02-28T00:54:31;96027.94;;;2.28;100.00
54038;BME280;39954;48.844;9.726;2024-02-28T00:55:34;96026.25;;;2.27;100.00
54038;BME280;39954;48.844;9.726;2024-02-28T00:56:36;96025.47;;;2.23;100.00
54038;BME280;39954;48.844;9.726;2024-02-28T00:57:41;96023.88;;;2.19;100.00
54038;BME280;39954;48.844;9.726;2024-02-28T00:58:44;96026.53;;;2.16;100.00
54038;BME280;39954;48.844;9.726;2024-02-28T00:59:46;96021.50;;;2.11;100.00
54038;BME280;39954;48.844;9.726;2024-02-28T01:00:51;96019.94;;;2.06;100.00
54038;BME280;39954;48.844;9.726;2024-02-28T01:01:53;96019.19;;;2.00;100.00
54038;BME280;39954;48.844;9.726;2024-02-28T01:02:58;96021.81;;;1.99;100.00
54038;BME280;39954;48.844;9.726;2024-02-28T01:04:03;96017.44;;;2.03;100.00
54038;BME280;39954;48.844;9.726;2024-02-28T01:05:09;96019.94;;;2.06;100.00
54038;BME280;39954;48.844;9.726;2024-02-28T01:06:11;96015.66;;;2.06;100.00
54038;BME280;39954;48.844;9.726;2024-02-28T01:07:17;96017.41;;;2.04;100.00
54038;BME280;39954;48.844;9.726;2024-02-28T01:08:20;96016.63;;;2.00;100.00
54038;BME280;39954;48.844;9.726;2024-02-28T01:09:22;96017.56;;;1.98;100.00
54038;BME280;39954;48.844;9.726;2024-02-28T01:10:27;96015.03;;;1.96;100.00
54038;BME280;39954;48.844;9.726;2024-02-28T01:11:29;96015.81;;;1.98;100.00
54038;BME280;39954;48.844;9.726;2024-02-28T01:12:34;96020.16;;;1.96;100.00
54038;BME280;39954;48.844;9.726;2024-02-28T01:13:36;96019.28;;;1.97;100.00
54038;BME280;39954;48.844;9.726;2024-02-28T01:14:41;96016.69;;;1.99;100.00
54038;BME280;39954;48.844;9.726;2024-02-28T01:15:44;96020.88;;;2.01;100.00
54038;BME280;39954;48.844;9.726;2024-02-28T01:16:48;96016.47;;;2.07;100.00
54038;BME280;39954;48.844;9.726;2024-02-28T01:17:51;96015.53;;;2.11;100.00
54038;BME280;39954;48.844;9.726;2024-02-28T01:18:56;96013.75;;;2.13;100.00
54038;BME280;39954;48.844;9.726;2024-02-28T01:20:01;96016.31;;;2.14;100.00
54038;BME280;39954;48.844;9.726;2024-02-28T01:21:05;96016.22;;;2.17;100.00
54038;BME280;39954;48.844;9.726;2024-02-28T01:22:08;96018.75;;;2.19;100.00
54038;BME280;39954;48.844;9.726;2024-02-28T01:23:13;96015.22;;;2.23;100.00
54038;BME280;39954;48.844;9.726;2024-02-28T01:24:15;96018.59;;;2.25;100.00
54038;BME280;39954;48.844;9.726;2024-02-28T01:25:22;96021.97;;;2.27;100.00
54038;BME280;39954;48.844;9.726;2024-02-28T01:26:24;96019.34;;;2.30;100.00
54038;BME280;39954;48.844;9.726;2024-02-28T01:27:27;96020.13;;;2.32;100.00
54038;BME280;39954;48.844;9.726;2024-02-28T01:28:31;96026.16;;;2.30;100.00
54038;BME280;39954;48.844;9.726;2024-02-28T01:29:34;96033.00;;;2.31;100.00
54038;BME280;39954;48.844;9.726;2024-02-28T01:30:38;96026.94;;;2.33;100.00
54038;BME280;39954;48.844;9.726;2024-02-28T01:31:41;96023.50;;;2.34;100.00
54038;BME280;39954;48.844;9.726;2024-02-28T01:32:45;96025.13;;;2.38;100.00
54038;BME280;39954;48.844;9.726;2024-02-28T01:33:47;96019.19;;;2.35;100.00
54038;BME280;39954;48.844;9.726;2024-02-28T01:34:52;96021.81;;;2.33;100.00
54038;BME280;39954;48.844;9.726;2024-02-28T01:35:57;96023.50;;;2.34;100.00
54038;BME280;39954;48.844;9.726;2024-02-28T01:37:02;96024.31;;;2.36;100.00
54038;BME280;39954;48.844;9.726;2024-02-28T01:38:04;96021.81;;;2.33;100.00
54038;BME280;39954;48.844;9.726;2024-02-28T01:39:09;96025.19;;;2.35;100.00
54038;BME280;39954;48.844;9.726;2024-02-28T01:40:12;96026.88;;;2.35;100.00
54038;BME280;39954;48.844;9.726;2024-02-28T01:41:17;96026.06;;;2.34;100.00
54038;BME280;39954;48.844;9.726;2024-02-28T01:42:20;96031.16;;;2.36;100.00
54038;BME280;39954;48.844;9.726;2024-02-28T01:43:25;96026.06;;;2.34;100.00
54038;BME280;39954;48.844;9.726;2024-02-28T01:44:27;96030.25;;;2.38;100.00
54038;BME280;39954;48.844;9.726;2024-02-28T01:45:29;96037.03;;;2.39;100.00
54038;BME280;39954;48.844;9.726;2024-02-28T01:46:34;96036.16;;;2.40;100.00
54038;BME280;39954;48.844;9.726;2024-02-28T01:47:37;96039.50;;;2.44;100.00
54038;BME280;39954;48.844;9.726;2024-02-28T01:48:41;96039.38;;;2.49;100.00
54038;BME280;39954;48.844;9.726;2024-02-28T01:49:45;96032.41;;;2.54;100.00
54038;BME280;39954;48.844;9.726;2024-02-28T01:50:52;96037.34;;;2.60;100.00
54038;BME280;39954;48.844;9.726;2024-02-28T01:51:57;96043.31;;;2.62;100.00
54038;BME280;39954;48.844;9.726;2024-02-28T01:53:02;96038.09;;;2.65;100.00
54038;BME280;39954;48.844;9.726;2024-02-28T01:54:06;96039.72;;;2.69;100.00
54038;BME280;39954;48.844;9.726;2024-02-28T01:55:11;96034.50;;;2.71;100.00
54038;BME280;39954;48.844;9.726;2024-02-28T01:56:14;96046.44;;;2.73;100.00
54038;BME280;39954;48.844;9.726;2024-02-28T01:57:19;96042.88;;;2.77;100.00
54038;BME280;39954;48.844;9.726;2024-02-28T01:58:23;96047.16;;;2.78;100.00
54038;BME280;39954;48.844;9.726;2024-02-28T01:59:26;96038.53;;;2.81;100.00
54038;BME280;39954;48.844;9.726;2024-02-28T02:00:32;96046.16;;;2.82;100.00
54038;BME280;39954;48.844;9.726;2024-02-28T02:01:34;96051.22;;;2.85;100.00
54038;BME280;39954;48.844;9.726;2024-02-28T02:02:41;96056.25;;;2.88;100.00
54038;BME280;39954;48.844;9.726;2024-02-28T02:03:44;96053.66;;;2.90;100.00
54038;BME280;39954;48.844;9.726;2024-02-28T02:04:46;96056.22;;;2.91;100.00
54038;BME280;39954;48.844;9.726;2024-02-28T02:05:54;96068.13;;;2.94;100.00
54038;BME280;39954;48.844;9.726;2024-02-28T02:06:59;96064.59;;;2.97;100.00
54038;BME280;39954;48.844;9.726;2024-02-28T02:08:04;96067.97;;;2.99;100.00
54038;BME280;39954;48.844;9.726;2024-02-28T02:09:07;96071.34;;;3.01;100.00
54038;BME280;39954;48.844;9.726;2024-02-28T02:10:12;96073.88;;;3.02;100.00
54038;BME280;39954;48.844;9.726;2024-02-28T02:11:15;96072.94;;;3.05;100.00
54038;BME280;39954;48.844;9.726;2024-02-28T02:12:21;96077.16;;;3.07;100.00
54038;BME280;39954;48.844;9.726;2024-02-28T02:13:23;96074.56;;;3.09;100.00
54038;BME280;39954;48.844;9.726;2024-02-28T02:14:28;96075.38;;;3.11;100.00
54038;BME280;39954;48.844;9.726;2024-02-28T02:15:30;96074.47;;;3.12;100.00
54038;BME280;39954;48.844;9.726;2024-02-28T02:16:35;96072.75;;;3.12;100.00
54038;BME280;39954;48.844;9.726;2024-02-28T02:17:37;96073.53;;;3.14;100.00
54038;BME280;39954;48.844;9.726;2024-02-28T02:18:42;96076.06;;;3.16;100.00
54038;BME280;39954;48.844;9.726;2024-02-28T02:19:45;96077.75;;;3.17;100.00
54038;BME280;39954;48.844;9.726;2024-02-28T02:20:50;96077.66;;;3.20;100.00
54038;BME280;39954;48.844;9.726;2024-02-28T02:22:03;96084.47;;;3.21;100.00
54038;BME280;39954;48.844;9.726;2024-02-28T02:23:10;96081.03;;;3.22;100.00
54038;BME280;39954;48.844;9.726;2024-02-28T02:24:14;96075.84;;;3.24;100.00
54038;BME280;39954;48.844;9.726;2024-02-28T02:25:17;96081.78;;;3.26;100.00
54038;BME280;39954;48.844;9.726;2024-02-28T02:26:21;96080.88;;;3.28;100.00
54038;BME280;39954;48.844;9.726;2024-02-28T02:27:24;96083.44;;;3.28;100.00
54038;BME280;39954;48.844;9.726;2024-02-28T02:28:29;96079.13;;;3.29;100.00
54038;BME280;39954;48.844;9.726;2024-02-28T02:29:31;96079.06;;;3.30;100.00
54038;BME280;39954;48.844;9.726;2024-02-28T02:30:37;96083.34;;;3.31;100.00
54038;BME280;39954;48.844;9.726;2024-02-28T02:31:39;96084.16;;;3.33;100.00
54038;BME280;39954;48.844;9.726;2024-02-28T02:32:44;96081.59;;;3.33;100.00
54038;BME280;39954;48.844;9.726;2024-02-28T02:33:46;96087.50;;;3.35;100.00
54038;BME280;39954;48.844;9.726;2024-02-28T02:34:51;96094.34;;;3.36;100.00
54038;BME280;39954;48.844;9.726;2024-02-28T02:35:54;96094.34;;;3.36;100.00
54038;BME280;39954;48.844;9.726;2024-02-28T02:36:56;96089.19;;;3.36;100.00
54038;BME280;39954;48.844;9.726;2024-02-28T02:38:01;96095.09;;;3.39;100.00
54038;BME280;39954;48.844;9.726;2024-02-28T02:39:06;96097.69;;;3.39;100.00
54038;BME280;39954;48.844;9.726;2024-02-28T02:40:12;96093.41;;;3.39;100.00
54038;BME280;39954;48.844;9.726;2024-02-28T02:41:14;96100.22;;;3.40;100.00
54038;BME280;39954;48.844;9.726;2024-02-28T02:42:19;96096.72;;;3.43;100.00
54038;BME280;39954;48.844;9.726;2024-02-28T02:43:21;96098.50;;;3.41;100.00
54038;BME280;39954;48.844;9.726;2024-02-28T02:44:26;96102.72;;;3.42;100.00
54038;BME280;39954;48.844;9.726;2024-02-28T02:45:28;96095.03;;;3.42;100.00
54038;BME280;39954;48.844;9.726;2024-02-28T02:46:30;96102.72;;;3.42;100.00
54038;BME280;39954;48.844;9.726;2024-02-28T02:47:35;96102.72;;;3.42;100.00
54038;BME280;39954;48.844;9.726;2024-02-28T02:48:38;96098.50;;;3.41;100.00
54038;BME280;39954;48.844;9.726;2024-02-28T02:49:43;96101.88;;;3.43;100.00
54038;BME280;39954;48.844;9.726;2024-02-28T02:50:45;96100.97;;;3.44;100.00
54038;BME280;39954;48.844;9.726;2024-02-28T02:51:49;96103.53;;;3.44;100.00
54038;BME280;39954;48.844;9.726;2024-02-28T02:52:52;96095.00;;;3.43;100.00
54038;BME280;39954;48.844;9.726;2024-02-28T02:53:54;96094.16;;;3.43;100.00
54038;BME280;39954;48.844;9.726;2024-02-28T02:55:01;96101.81;;;3.44;100.00
54038;BME280;39954;48.844;9.726;2024-02-28T02:56:04;96096.66;;;3.44;100.00
54038;BME280;39954;48.844;9.726;2024-02-28T02:57:09;96095.03;;;3.42;100.00
54038;BME280;39954;48.844;9.726;2024-02-28T02:58:11;96102.69;;;3.43;100.00
54038;BME280;39954;48.844;9.726;2024-02-28T02:59:16;96098.41;;;3.44;100.00
54038;BME280;39954;48.844;9.726;2024-02-28T03:00:19;96100.94;;;3.45;100.00
54038;BME280;39954;48.844;9.726;2024-02-28T03:01:23;96097.47;;;3.46;100.00
54038;BME280;39954;48.844;9.726;2024-02-28T03:02:26;96101.78;;;3.46;100.00
54038;BME280;39954;48.844;9.726;2024-02-28T03:03:28;96096.56;;;3.47;100.00
54038;BME280;39954;48.844;9.726;2024-02-28T03:04:33;96100.03;;;3.46;100.00
54038;BME280;39954;48.844;9.726;2024-02-28T03:05:35;96103.44;;;3.47;100.00
54038;BME280;39954;48.844;9.726;2024-02-28T03:06:40;96105.16;;;3.48;100.00
54038;BME280;39954;48.844;9.726;2024-02-28T03:07:42;96100.88;;;3.47;100.00
54038;BME280;39954;48.844;9.726;2024-02-28T03:08:44;96107.72;;;3.48;100.00
54038;BME280;39954;48.844;9.726;2024-02-28T03:09:49;96116.25;;;3.48;100.00
54038;BME280;39954;48.844;9.726;2024-02-28T03:10:56;96115.44;;;3.48;100.00
54038;BME280;39954;48.844;9.726;2024-02-28T03:12:01;96113.72;;;3.47;100.00
54038;BME280;39954;48.844;9.726;2024-02-28T03:13:03;96117.13;;;3.47;100.00
54038;BME280;39954;48.844;9.726;2024-02-28T03:14:10;96107.72;;;3.48;100.00
54038;BME280;39954;48.844;9.726;2024-02-28T03:15:12;96114.53;;;3.49;100.00
54038;BME280;39954;48.844;9.726;2024-02-28T03:16:18;96108.56;;;3.48;100.00
54038;BME280;39954;48.844;9.726;2024-02-28T03:17:20;96121.44;;;3.47;100.00
54038;BME280;39954;48.844;9.726;2024-02-28T03:18:22;96116.28;;;3.47;100.00
54038;BME280;39954;48.844;9.726;2024-02-28T03:19:27;96124.84;;;3.47;100.00
54038;BME280;39954;48.844;9.726;2024-02-28T03:20:29;96119.75;;;3.46;100.00
54038;BME280;39954;48.844;9.726;2024-02-28T03:21:34;96124.84;;;3.47;100.00
54038;BME280;39954;48.844;9.726;2024-02-28T03:22:36;96124.00;;;3.47;100.00
54038;BME280;39954;48.844;9.726;2024-02-28T03:23:41;96122.25;;;3.47;100.00
54038;BME280;39954;48.844;9.726;2024-02-28T03:24:43;96126.56;;;3.47;100.00
54038;BME280;39954;48.844;9.726;2024-02-28T03:25:48;96126.56;;;3.47;100.00
54038;BME280;39954;48.844;9.726;2024-02-28T03:26:53;96131.72;;;3.47;100.00
54038;BME280;39954;48.844;9.726;2024-02-28T03:27:58;96128.38;;;3.45;100.00
54038;BME280;39954;48.844;9.726;2024-02-28T03:29:00;96133.50;;;3.45;100.00
54038;BME280;39954;48.844;9.726;2024-02-28T03:30:06;96136.94;;;3.44;100.00
54038;BME280;39954;48.844;9.726;2024-02-28T03:31:08;96142.03;;;3.45;100.00
54038;BME280;39954;48.844;9.726;2024-02-28T03:32:14;96141.22;;;3.45;100.00
54038;BME280;39954;48.844;9.726;2024-02-28T03:33:16;96146.34;;;3.45;100.00
54038;BME280;39954;48.844;9.726;2024-02-28T03:34:18;96143.78;;;3.45;100.00
54038;BME280;39954;48.844;9.726;2024-02-28T03:35:23;96142.06;;;3.44;100.00
54038;BME280;39954;48.844;9.726;2024-02-28T03:36:27;96144.63;;;3.45;100.00
54038;BME280;39954;48.844;9.726;2024-02-28T03:37:31;96142.91;;;3.44;100.00
54038;BME280;39954;48.844;9.726;2024-02-28T03:38:33;96150.59;;;3.46;100.00
54038;BME280;39954;48.844;9.726;2024-02-28T03:39:36;96143.78;;;3.45;100.00
54038;BME280;39954;48.844;9.726;2024-02-28T03:40:41;96153.09;;;3.47;100.00
54038;BME280;39954;48.844;9.726;2024-02-28T03:41:43;96151.34;;;3.49;100.00
54038;BME280;39954;48.844;9.726;2024-02-28T03:42:50;96147.13;;;3.47;100.00
54038;BME280;39954;48.844;9.726;2024-02-28T03:43:52;96153.97;;;3.48;100.00
54038;BME280;39954;48.844;9.726;2024-02-28T03:44:57;96159.09;;;3.48;100.00
54038;BME280;39954;48.844;9.726;2024-02-28T03:46:00;96165.91;;;3.49;100.00
54038;BME280;39954;48.844;9.726;2024-02-28T03:47:05;96162.44;;;3.50;100.00
54038;BME280;39954;48.844;9.726;2024-02-28T03:48:07;96158.22;;;3.49;100.00
54038;BME280;39954;48.844;9.726;2024-02-28T03:49:12;96160.75;;;3.50;100.00
54038;BME280;39954;48.844;9.726;2024-02-28T03:50:14;96156.44;;;3.51;100.00
54038;BME280;39954;48.844;9.726;2024-02-28T03:51:19;96155.63;;;3.49;100.00
54038;BME280;39954;48.844;9.726;2024-02-28T03:52:21;96159.03;;;3.49;100.00
54038;BME280;39954;48.844;9.726;2024-02-28T03:53:26;96159.88;;;3.50;100.00
54038;BME280;39954;48.844;9.726;2024-02-28T03:54:28;96161.59;;;3.51;100.00
54038;BME280;39954;48.844;9.726;2024-02-28T03:55:33;96165.81;;;3.52;100.00
54038;BME280;39954;48.844;9.726;2024-02-28T03:56:35;96165.00;;;3.51;100.00
54038;BME280;39954;48.844;9.726;2024-02-28T03:57:40;96154.72;;;3.51;100.00
54038;BME280;39954;48.844;9.726;2024-02-28T03:58:45;96166.66;;;3.52;100.00
54038;BME280;39954;48.844;9.726;2024-02-28T03:59:47;96154.72;;;3.51;100.00
54038;BME280;39954;48.844;9.726;2024-02-28T04:00:52;96163.25;;;3.52;100.00
54038;BME280;39954;48.844;9.726;2024-02-28T04:01:54;96158.13;;;3.52;100.00
54038;BME280;39954;48.844;9.726;2024-02-28T04:02:56;96159.81;;;3.53;100.00
54038;BME280;39954;48.844;9.726;2024-02-28T04:04:01;96152.13;;;3.53;100.00
54038;BME280;39954;48.844;9.726;2024-02-28T04:05:05;96158.09;;;3.53;100.00
54038;BME280;39954;48.844;9.726;2024-02-28T04:06:07;96160.66;;;3.53;100.00
54038;BME280;39954;48.844;9.726;2024-02-28T04:07:12;96162.41;;;3.53;100.00
54038;BME280;39954;48.844;9.726;2024-02-28T04:08:15;96161.53;;;3.52;100.00
54038;BME280;39954;48.844;9.726;2024-02-28T04:09:17;96157.25;;;3.53;100.00
54038;BME280;39954;48.844;9.726;2024-02-28T04:10:22;96157.25;;;3.53;100.00
54038;BME280;39954;48.844;9.726;2024-02-28T04:11:24;96164.09;;;3.52;100.00
54038;BME280;39954;48.844;9.726;2024-02-28T04:12:29;96158.97;;;3.52;100.00
54038;BME280;39954;48.844;9.726;2024-02-28T04:13:31;96156.38;;;3.52;100.00
54038;BME280;39954;48.844;9.726;2024-02-28T04:14:40;96158.09;;;3.53;100.00
54038;BME280;39954;48.844;9.726;2024-02-28T04:15:43;96156.38;;;3.52;100.00
54038;BME280;39954;48.844;9.726;2024-02-28T04:16:48;96148.66;;;3.54;100.00
54038;BME280;39954;48.844;9.726;2024-02-28T04:17:52;96158.09;;;3.53;100.00
54038;BME280;39954;48.844;9.726;2024-02-28T04:18:57;96154.69;;;3.53;100.00
54038;BME280;39954;48.844;9.726;2024-02-28T04:19:59;96157.25;;;3.53;100.00
54038;BME280;39954;48.844;9.726;2024-02-28T04:21:06;96158.94;;;3.54;100.00
54038;BME280;39954;48.844;9.726;2024-02-28T04:22:08;96152.94;;;3.53;100.00
54038;BME280;39954;48.844;9.726;2024-02-28T04:23:10;96154.69;;;3.53;100.00
54038;BME280;39954;48.844;9.726;2024-02-28T04:24:15;96152.13;;;3.53;100.00
54038;BME280;39954;48.844;9.726;2024-02-28T04:25:18;96151.22;;;3.54;100.00
54038;BME280;39954;48.844;9.726;2024-02-28T04:26:23;96160.69;;;3.52;100.00
54038;BME280;39954;48.844;9.726;2024-02-28T04:27:25;96150.41;;;3.52;100.00
54038;BME280;39954;48.844;9.726;2024-02-28T04:28:27;96155.56;;;3.52;100.00
54038;BME280;39954;48.844;9.726;2024-02-28T04:29:32;96150.47;;;3.50;100.00
54038;BME280;39954;48.844;9.726;2024-02-28T04:30:37;96156.47;;;3.49;100.00
54038;BME280;39954;48.844;9.726;2024-02-28T04:31:39;96153.91;;;3.49;100.00
54038;BME280;39954;48.844;9.726;2024-02-28T04:32:44;96153.03;;;3.50;100.00
54038;BME280;39954;48.844;9.726;2024-02-28T04:33:46;96156.47;;;3.49;100.00
54038;BME280;39954;48.844;9.726;2024-02-28T04:34:51;96162.53;;;3.47;100.00
54038;BME280;39954;48.844;9.726;2024-02-28T04:35:53;96157.31;;;3.50;100.00
54038;BME280;39954;48.844;9.726;2024-02-28T04:36:55;96156.47;;;3.49;100.00
54038;BME280;39954;48.844;9.726;2024-02-28T04:38:00;96166.81;;;3.48;100.00
54038;BME280;39954;48.844;9.726;2024-02-28T04:39:02;96164.28;;;3.46;100.00
54038;BME280;39954;48.844;9.726;2024-02-28T04:40:11;96166.00;;;3.46;100.00
54038;BME280;39954;48.844;9.726;2024-02-28T04:41:13;96168.56;;;3.46;100.00
54038;BME280;39954;48.844;9.726;2024-02-28T04:42:18;96171.16;;;3.46;100.00
54038;BME280;39954;48.844;9.726;2024-02-28T04:43:21;96166.84;;;3.46;100.00
54038;BME280;39954;48.844;9.726;2024-02-28T04:44:25;96166.81;;;3.48;100.00
54038;BME280;39954;48.844;9.726;2024-02-28T04:45:28;96160.88;;;3.46;100.00
54038;BME280;39954;48.844;9.726;2024-02-28T04:46:37;96164.25;;;3.48;100.00
54038;BME280;39954;48.844;9.726;2024-02-28T04:47:39;96162.53;;;3.47;100.00
54038;BME280;39954;48.844;9.726;2024-02-28T04:48:45;96161.69;;;3.48;100.00
54038;BME280;39954;48.844;9.726;2024-02-28T04:49:47;96162.53;;;3.47;100.00
54038;BME280;39954;48.844;9.726;2024-02-28T04:50:52;96164.91;;;3.54;100.00
54038;BME280;39954;48.844;9.726;2024-02-28T04:51:54;96165.75;;;3.55;100.00
54038;BME280;39954;48.844;9.726;2024-02-28T04:53:01;96168.50;;;3.49;100.00
54038;BME280;39954;48.844;9.726;2024-02-28T04:54:03;96164.16;;;3.51;100.00
54038;BME280;39954;48.844;9.726;2024-02-28T04:55:08;96170.09;;;3.53;100.00
54038;BME280;39954;48.844;9.726;2024-02-28T04:56:10;96165.09;;;3.47;100.00
54038;BME280;39954;48.844;9.726;2024-02-28T04:57:15;96169.38;;;3.48;100.00
54038;BME280;39954;48.844;9.726;2024-02-28T04:58:17;96169.47;;;3.45;100.00
54038;BME280;39954;48.844;9.726;2024-02-28T04:59:22;96174.59;;;3.45;100.00
54038;BME280;39954;48.844;9.726;2024-02-28T05:00:24;96169.28;;;3.51;100.00
54038;BME280;39954;48.844;9.726;2024-02-28T05:01:30;96179.56;;;3.51;100.00
54038;BME280;39954;48.844;9.726;2024-02-28T05:02:36;96183.81;;;3.52;100.00
54038;BME280;39954;48.844;9.726;2024-02-28T05:03:40;96186.56;;;3.46;100.00
54038;BME280;39954;48.844;9.726;2024-02-28T05:04:42;96184.94;;;3.42;100.00
54038;BME280;39954;48.844;9.726;2024-02-28T05:05:45;96183.16;;;3.45;100.00
54038;BME280;39954;48.844;9.726;2024-02-28T05:06:50;96179.66;;;3.48;100.00
54038;BME280;39954;48.844;9.726;2024-02-28T05:07:52;96178.03;;;3.44;100.00
54038;BME280;39954;48.844;9.726;2024-02-28T05:08:56;96190.97;;;3.41;100.00
54038;BME280;39954;48.844;9.726;2024-02-28T05:09:59;96191.94;;;3.36;100.00
54038;BME280;39954;48.844;9.726;2024-02-28T05:11:04;96192.81;;;3.35;100.00
54038;BME280;39954;48.844;9.726;2024-02-28T05:12:06;96198.84;;;3.34;100.00
54038;BME280;39954;48.844;9.726;2024-02-28T05:13:13;96192.03;;;3.33;100.00
54038;BME280;39954;48.844;9.726;2024-02-28T05:14:15;96191.22;;;3.31;100.00
54038;BME280;39954;48.844;9.726;2024-02-28T05:15:22;96197.19;;;3.33;100.00
54038;BME280;39954;48.844;9.726;2024-02-28T05:16:25;96193.78;;;3.31;100.00
54038;BME280;39954;48.844;9.726;2024-02-28T05:17:29;96196.41;;;3.30;100.00
54038;BME280;39954;48.844;9.726;2024-02-28T05:18:34;96202.31;;;3.33;100.00
54038;BME280;39954;48.844;9.726;2024-02-28T05:19:39;96196.38;;;3.31;100.00
54038;BME280;39954;48.844;9.726;2024-02-28T05:20:41;96196.47;;;3.27;100.00
54038;BME280;39954;48.844;9.726;2024-02-28T05:21:48;96199.88;;;3.27;100.00
54038;BME280;39954;48.844;9.726;2024-02-28T05:22:51;96193.91;;;3.27;100.00
54038;BME280;39954;48.844;9.726;2024-02-28T05:23:53;96202.44;;;3.27;100.00
54038;BME280;39954;48.844;9.726;2024-02-28T05:24:58;96199.09;;;3.25;100.00
54038;BME280;39954;48.844;9.726;2024-02-28T05:26:01;96203.44;;;3.22;100.00
54038;BME280;39954;48.844;9.726;2024-02-28T05:27:08;96200.94;;;3.20;100.00
54038;BME280;39954;48.844;9.726;2024-02-28T05:28:10;96199.22;;;3.21;100.00
54038;BME280;39954;48.844;9.726;2024-02-28T05:29:14;96202.69;;;3.20;100.00
54038;BME280;39954;48.844;9.726;2024-02-28T05:30:16;96206.94;;;3.19;100.00
54038;BME280;39954;48.844;9.726;2024-02-28T05:31:22;96203.53;;;3.19;100.00
54038;BME280;39954;48.844;9.726;2024-02-28T05:32:25;96207.84;;;3.18;100.00
54038;BME280;39954;48.844;9.726;2024-02-28T05:33:30;96212.16;;;3.16;100.00
54038;BME280;39954;48.844;9.726;2024-02-28T05:34:34;96210.47;;;3.15;100.00
54038;BME280;39954;48.844;9.726;2024-02-28T05:35:39;96211.28;;;3.17;100.00
54038;BME280;39954;48.844;9.726;2024-02-28T05:36:41;96211.28;;;3.17;100.00
54038;BME280;39954;48.844;9.726;2024-02-28T05:37:46;96212.22;;;3.14;100.00